EWG2DD EDDL-EKCH
Flight info
| Callsign | EWG2DD |
|---|---|
| Flight time | 1h 1m |
| Altitude | 36000 |
| Route | MEVEL4T/23L MEVEL Y850 BASUM M170 STADE DCT MEGAR P605 GESKA Z711 MONAK |
| Aircraft | A320/M-SDE3FGHIRWY/LB1 |
Departure
| Time | 2026-05-04 19:36 |
|---|---|
| Airport | Düsseldorf Airport (EDDL) |
Arrival
| Time | 2026-05-04 20:37 |
|---|---|
| Airport | Copenhagen Kastrup Airport (EKCH) |
| Time | Latitude | Longitude | Altitude | Speed | Heading |
|---|---|---|---|---|---|
| 2026-05-04 18:17 | 51.27943 | 6.76174 | 130 ft | 0 kts | 91° |
| 2026-05-04 19:17 | 51.27943 | 6.76171 | 130 ft | 2 kts | 91° |
| 2026-05-04 19:17 | 51.27943 | 6.76130 | 126 ft | 4 kts | 88° |
| 2026-05-04 19:17 | 51.27940 | 6.76087 | 127 ft | 4 kts | 76° |
| 2026-05-04 19:18 | 51.27930 | 6.76053 | 127 ft | 4 kts | 26° |
| 2026-05-04 19:18 | 51.27923 | 6.76049 | 127 ft | 0 kts | 1° |
| 2026-05-04 19:20 | 51.27942 | 6.76049 | 126 ft | 10 kts | 359° |
| 2026-05-04 19:20 | 51.28019 | 6.76049 | 126 ft | 11 kts | 1° |
| 2026-05-04 19:21 | 51.28057 | 6.76049 | 129 ft | 0 kts | 359° |
| 2026-05-04 19:22 | 51.28060 | 6.76049 | 129 ft | 1 kts | 359° |
| 2026-05-04 19:22 | 51.28064 | 6.76049 | 128 ft | 0 kts | 358° |
| 2026-05-04 19:24 | 51.28066 | 6.76049 | 130 ft | 2 kts | 356° |
| 2026-05-04 19:24 | 51.28093 | 6.76034 | 127 ft | 3 kts | 339° |
| 2026-05-04 19:24 | 51.28111 | 6.76027 | 127 ft | 2 kts | 350° |
| 2026-05-04 19:25 | 51.28122 | 6.76029 | 130 ft | 4 kts | 9° |
| 2026-05-04 19:25 | 51.28127 | 6.76033 | 130 ft | 0 kts | 24° |
| 2026-05-04 19:26 | 51.28148 | 6.76061 | 126 ft | 11 kts | 47° |
| 2026-05-04 19:26 | 51.28193 | 6.76155 | 129 ft | 10 kts | 53° |
| 2026-05-04 19:26 | 51.28235 | 6.76244 | 128 ft | 10 kts | 53° |
| 2026-05-04 19:26 | 51.28274 | 6.76328 | 125 ft | 9 kts | 52° |
| 2026-05-04 19:27 | 51.28323 | 6.76428 | 123 ft | 15 kts | 52° |
| 2026-05-04 19:27 | 51.28385 | 6.76558 | 125 ft | 13 kts | 53° |
| 2026-05-04 19:27 | 51.28390 | 6.76568 | 125 ft | 1 kts | 53° |
| 2026-05-04 19:27 | 51.28408 | 6.76607 | 124 ft | 5 kts | 52° |
| 2026-05-04 19:28 | 51.28426 | 6.76643 | 123 ft | 3 kts | 53° |
| 2026-05-04 19:28 | 51.28451 | 6.76697 | 126 ft | 12 kts | 52° |
| 2026-05-04 19:28 | 51.28502 | 6.76804 | 123 ft | 11 kts | 53° |
| 2026-05-04 19:28 | 51.28551 | 6.76907 | 126 ft | 15 kts | 52° |
| 2026-05-04 19:29 | 51.28636 | 6.77082 | 128 ft | 23 kts | 53° |
| 2026-05-04 19:29 | 51.28735 | 6.77290 | 126 ft | 25 kts | 52° |
| 2026-05-04 19:29 | 51.28843 | 6.77517 | 130 ft | 26 kts | 53° |
| 2026-05-04 19:29 | 51.28959 | 6.77760 | 128 ft | 28 kts | 53° |
| 2026-05-04 19:30 | 51.29078 | 6.78011 | 129 ft | 28 kts | 53° |
| 2026-05-04 19:30 | 51.29190 | 6.78250 | 138 ft | 23 kts | 52° |
| 2026-05-04 19:30 | 51.29235 | 6.78342 | 142 ft | 6 kts | 52° |
| 2026-05-04 19:30 | 51.29254 | 6.78383 | 144 ft | 10 kts | 53° |
| 2026-05-04 19:31 | 51.29301 | 6.78482 | 148 ft | 8 kts | 53° |
| 2026-05-04 19:31 | 51.29323 | 6.78527 | 150 ft | 2 kts | 49° |
| 2026-05-04 19:31 | 51.29324 | 6.78529 | 150 ft | 0 kts | 49° |
| 2026-05-04 19:32 | 51.29336 | 6.78546 | 152 ft | 4 kts | 40° |
| 2026-05-04 19:32 | 51.29370 | 6.78571 | 152 ft | 4 kts | 14° |
| 2026-05-04 19:32 | 51.29392 | 6.78573 | 152 ft | 5 kts | 359° |
| 2026-05-04 19:33 | 51.29419 | 6.78570 | 152 ft | 2 kts | 355° |
| 2026-05-04 19:33 | 51.29436 | 6.78568 | 152 ft | 0 kts | 355° |
| 2026-05-04 19:34 | 51.29462 | 6.78565 | 152 ft | 9 kts | 354° |
| 2026-05-04 19:34 | 51.29503 | 6.78538 | 153 ft | 4 kts | 321° |
| 2026-05-04 19:34 | 51.29518 | 6.78496 | 152 ft | 8 kts | 283° |
| 2026-05-04 19:34 | 51.29508 | 6.78447 | 151 ft | 0 kts | 237° |
| 2026-05-04 19:35 | 51.29335 | 6.78086 | 143 ft | 78 kts | 232° |
| 2026-05-04 19:35 | 51.28882 | 6.77138 | 131 ft | 134 kts | 233° |
| 2026-05-04 19:35 | 51.28254 | 6.75777 | 333 ft | 159 kts | 233° |
| 2026-05-04 19:36 | 51.27626 | 6.74414 | 1041 ft | 154 kts | 230° |
| 2026-05-04 19:36 | 51.26974 | 6.72976 | 1525 ft | 167 kts | 238° |
| 2026-05-04 19:36 | 51.26841 | 6.71013 | 1763 ft | 195 kts | 284° |
| 2026-05-04 19:36 | 51.27672 | 6.69294 | 2290 ft | 206 kts | 329° |
| 2026-05-04 19:37 | 51.29051 | 6.68579 | 2959 ft | 209 kts | 354° |
| 2026-05-04 19:37 | 51.30547 | 6.68663 | 3338 ft | 228 kts | 5° |
| 2026-05-04 19:37 | 51.32210 | 6.68876 | 3646 ft | 252 kts | 4° |
| 2026-05-04 19:37 | 51.34020 | 6.69079 | 4189 ft | 268 kts | 3° |
| 2026-05-04 19:38 | 51.35907 | 6.69280 | 5025 ft | 273 kts | 3° |
| 2026-05-04 19:38 | 51.37813 | 6.69480 | 5906 ft | 277 kts | 3° |
| 2026-05-04 19:38 | 51.39735 | 6.69643 | 6745 ft | 280 kts | 2° |
| 2026-05-04 19:38 | 51.41711 | 6.69690 | 7595 ft | 282 kts | 1° |
| 2026-05-04 19:39 | 51.43678 | 6.69676 | 8437 ft | 285 kts | 0° |
| 2026-05-04 19:39 | 51.45669 | 6.69647 | 9269 ft | 288 kts | 0° |
| 2026-05-04 19:39 | 51.47694 | 6.69624 | 10033 ft | 291 kts | 0° |
| 2026-05-04 19:39 | 51.49762 | 6.69613 | 10406 ft | 311 kts | 0° |
| 2026-05-04 19:40 | 51.52019 | 6.69610 | 10705 ft | 330 kts | 1° |
| 2026-05-04 19:40 | 51.54344 | 6.69610 | 11289 ft | 338 kts | 1° |
| 2026-05-04 19:40 | 51.56707 | 6.69615 | 11976 ft | 343 kts | 1° |
| 2026-05-04 19:40 | 51.59096 | 6.70015 | 12671 ft | 346 kts | 14° |
| 2026-05-04 19:41 | 51.61346 | 6.71287 | 13332 ft | 350 kts | 27° |
| 2026-05-04 19:41 | 51.63399 | 6.73445 | 14055 ft | 350 kts | 41° |
| 2026-05-04 19:41 | 51.65081 | 6.76298 | 14692 ft | 352 kts | 53° |
| 2026-05-04 19:41 | 51.66549 | 6.79484 | 15229 ft | 359 kts | 55° |
| 2026-05-04 19:42 | 51.68028 | 6.82710 | 15713 ft | 366 kts | 55° |
| 2026-05-04 19:42 | 51.69550 | 6.86033 | 16282 ft | 370 kts | 55° |
| 2026-05-04 19:42 | 51.71093 | 6.89396 | 16872 ft | 375 kts | 55° |
| 2026-05-04 19:42 | 51.72654 | 6.92795 | 17448 ft | 379 kts | 55° |
| 2026-05-04 19:43 | 51.74223 | 6.96209 | 18023 ft | 383 kts | 55° |
| 2026-05-04 19:43 | 51.75821 | 6.99696 | 18554 ft | 387 kts | 55° |
| 2026-05-04 19:43 | 51.77429 | 7.03222 | 19059 ft | 390 kts | 55° |
| 2026-05-04 19:43 | 51.79042 | 7.06771 | 19570 ft | 394 kts | 55° |
| 2026-05-04 19:44 | 51.80675 | 7.10363 | 20078 ft | 398 kts | 55° |
| 2026-05-04 19:44 | 51.82312 | 7.13969 | 20584 ft | 401 kts | 55° |
| 2026-05-04 19:44 | 51.83963 | 7.17608 | 21100 ft | 404 kts | 55° |
| 2026-05-04 19:44 | 51.85667 | 7.21220 | 21593 ft | 409 kts | 50° |
| 2026-05-04 19:45 | 51.87639 | 7.24592 | 22084 ft | 413 kts | 47° |
| 2026-05-04 19:45 | 51.89645 | 7.27958 | 22573 ft | 417 kts | 46° |
| 2026-05-04 19:45 | 51.91700 | 7.31313 | 23050 ft | 421 kts | 45° |
| 2026-05-04 19:45 | 51.93796 | 7.34615 | 23499 ft | 425 kts | 44° |
| 2026-05-04 19:46 | 51.95955 | 7.37944 | 23865 ft | 429 kts | 44° |
| 2026-05-04 19:46 | 51.98133 | 7.41278 | 24231 ft | 433 kts | 43° |
| 2026-05-04 19:46 | 52.00345 | 7.44675 | 24594 ft | 437 kts | 44° |
| 2026-05-04 19:46 | 52.02556 | 7.48098 | 24966 ft | 440 kts | 44° |
| 2026-05-04 19:47 | 52.04738 | 7.51511 | 25294 ft | 444 kts | 44° |
| 2026-05-04 19:47 | 52.06968 | 7.55020 | 25644 ft | 447 kts | 44° |
| 2026-05-04 19:47 | 52.09224 | 7.58585 | 26007 ft | 450 kts | 44° |
| 2026-05-04 19:47 | 52.11480 | 7.62153 | 26330 ft | 453 kts | 44° |
| 2026-05-04 19:48 | 52.13723 | 7.65701 | 26654 ft | 456 kts | 44° |
| 2026-05-04 19:48 | 52.16016 | 7.69324 | 26980 ft | 459 kts | 44° |
| 2026-05-04 19:48 | 52.18329 | 7.72985 | 27295 ft | 462 kts | 44° |
| 2026-05-04 19:48 | 52.20629 | 7.76635 | 27624 ft | 465 kts | 44° |
| 2026-05-04 19:49 | 52.22942 | 7.80311 | 27943 ft | 468 kts | 44° |
| 2026-05-04 19:49 | 52.25289 | 7.84040 | 28248 ft | 471 kts | 44° |
| 2026-05-04 19:49 | 52.27642 | 7.87776 | 28594 ft | 473 kts | 44° |
| 2026-05-04 19:49 | 52.29221 | 7.90287 | 28806 ft | 475 kts | 44° |
| 2026-05-04 19:50 | 52.31580 | 7.94051 | 29100 ft | 477 kts | 43° |
| 2026-05-04 19:50 | 52.33962 | 7.97859 | 29403 ft | 479 kts | 43° |
| 2026-05-04 19:50 | 52.36354 | 8.01687 | 29698 ft | 482 kts | 43° |
| 2026-05-04 19:50 | 52.38734 | 8.05503 | 29979 ft | 484 kts | 43° |
| 2026-05-04 19:51 | 52.41139 | 8.09369 | 30218 ft | 486 kts | 43° |
| 2026-05-04 19:51 | 52.43563 | 8.13269 | 30442 ft | 489 kts | 43° |
| 2026-05-04 19:51 | 52.46001 | 8.17195 | 30664 ft | 491 kts | 43° |
| 2026-05-04 19:51 | 52.48425 | 8.21110 | 30904 ft | 493 kts | 44° |
| 2026-05-04 19:52 | 52.50844 | 8.25026 | 31088 ft | 495 kts | 44° |
| 2026-05-04 19:52 | 52.53303 | 8.29014 | 31325 ft | 496 kts | 44° |
| 2026-05-04 19:52 | 52.55789 | 8.33045 | 31622 ft | 496 kts | 44° |
| 2026-05-04 19:52 | 52.58217 | 8.36989 | 31913 ft | 496 kts | 44° |
| 2026-05-04 19:53 | 52.60689 | 8.41011 | 32199 ft | 496 kts | 44° |
| 2026-05-04 19:53 | 52.63109 | 8.44961 | 32478 ft | 495 kts | 44° |
| 2026-05-04 19:53 | 52.65526 | 8.48917 | 32769 ft | 495 kts | 44° |
| 2026-05-04 19:53 | 52.67979 | 8.52932 | 33059 ft | 495 kts | 44° |
| 2026-05-04 19:54 | 52.70417 | 8.56922 | 33332 ft | 495 kts | 43° |
| 2026-05-04 19:54 | 52.72861 | 8.60927 | 33629 ft | 495 kts | 43° |
| 2026-05-04 19:54 | 52.75298 | 8.64931 | 33929 ft | 495 kts | 43° |
| 2026-05-04 19:54 | 52.77723 | 8.68927 | 34195 ft | 494 kts | 43° |
| 2026-05-04 19:55 | 52.80171 | 8.72967 | 34460 ft | 493 kts | 43° |
| 2026-05-04 19:55 | 52.82606 | 8.76990 | 34740 ft | 492 kts | 43° |
| 2026-05-04 19:55 | 52.85011 | 8.80969 | 34951 ft | 491 kts | 43° |
| 2026-05-04 19:56 | 52.89828 | 8.88961 | 35000 ft | 489 kts | 44° |
| 2026-05-04 19:56 | 52.94581 | 8.96870 | 34997 ft | 488 kts | 43° |
| 2026-05-04 19:57 | 52.99360 | 9.04853 | 35000 ft | 487 kts | 43° |
| 2026-05-04 19:57 | 53.04129 | 9.12847 | 34998 ft | 487 kts | 43° |
| 2026-05-04 19:58 | 53.08905 | 9.20872 | 34986 ft | 487 kts | 43° |
| 2026-05-04 19:58 | 53.13648 | 9.28884 | 34993 ft | 486 kts | 43° |
| 2026-05-04 19:59 | 53.18392 | 9.36923 | 34991 ft | 486 kts | 43° |
| 2026-05-04 19:59 | 53.23132 | 9.44967 | 34980 ft | 486 kts | 43° |
| 2026-05-04 20:00 | 53.27879 | 9.53046 | 34980 ft | 486 kts | 44° |
| 2026-05-04 20:00 | 53.32608 | 9.61131 | 34983 ft | 486 kts | 44° |
| 2026-05-04 20:01 | 53.37317 | 9.69212 | 34898 ft | 481 kts | 43° |
| 2026-05-04 20:01 | 53.39614 | 9.73172 | 34475 ft | 475 kts | 43° |
| 2026-05-04 20:01 | 53.41911 | 9.77142 | 33991 ft | 471 kts | 43° |
| 2026-05-04 20:01 | 53.44155 | 9.81019 | 33458 ft | 468 kts | 43° |
| 2026-05-04 20:02 | 53.46438 | 9.84965 | 32899 ft | 465 kts | 43° |
| 2026-05-04 20:02 | 53.48681 | 9.88848 | 32364 ft | 462 kts | 43° |
| 2026-05-04 20:02 | 53.50884 | 9.92665 | 31854 ft | 459 kts | 44° |
| 2026-05-04 20:02 | 53.53130 | 9.96563 | 31335 ft | 457 kts | 44° |
| 2026-05-04 20:03 | 53.55307 | 10.00356 | 30845 ft | 454 kts | 44° |
| 2026-05-04 20:03 | 53.57512 | 10.04205 | 30362 ft | 452 kts | 44° |
| 2026-05-04 20:03 | 53.59665 | 10.07960 | 29839 ft | 450 kts | 44° |
| 2026-05-04 20:03 | 53.61839 | 10.11756 | 29300 ft | 447 kts | 44° |
| 2026-05-04 20:04 | 53.63987 | 10.15517 | 28988 ft | 445 kts | 44° |
| 2026-05-04 20:04 | 53.68258 | 10.23016 | 28994 ft | 444 kts | 44° |
| 2026-05-04 20:05 | 53.72539 | 10.30549 | 28991 ft | 445 kts | 44° |
| 2026-05-04 20:05 | 53.76815 | 10.38091 | 28992 ft | 445 kts | 44° |
| 2026-05-04 20:05 | 53.78954 | 10.41872 | 28845 ft | 443 kts | 44° |
| 2026-05-04 20:06 | 53.81071 | 10.45624 | 28358 ft | 440 kts | 44° |
| 2026-05-04 20:06 | 53.83182 | 10.49375 | 28020 ft | 437 kts | 44° |
| 2026-05-04 20:06 | 53.85269 | 10.53096 | 27991 ft | 436 kts | 44° |
| 2026-05-04 20:06 | 53.87364 | 10.56834 | 27996 ft | 437 kts | 44° |
| 2026-05-04 20:07 | 53.89461 | 10.60573 | 27998 ft | 437 kts | 44° |
| 2026-05-04 20:07 | 53.91551 | 10.64298 | 28000 ft | 437 kts | 44° |
| 2026-05-04 20:07 | 53.93649 | 10.68039 | 27994 ft | 437 kts | 44° |
| 2026-05-04 20:08 | 53.97835 | 10.75542 | 27994 ft | 437 kts | 44° |
| 2026-05-04 20:08 | 53.99928 | 10.79315 | 27988 ft | 437 kts | 43° |
| 2026-05-04 20:08 | 54.02154 | 10.82787 | 28007 ft | 435 kts | 37° |
| 2026-05-04 20:08 | 54.04421 | 10.86107 | 27645 ft | 434 kts | 37° |
| 2026-05-04 20:09 | 54.06759 | 10.89489 | 27267 ft | 431 kts | 36° |
| 2026-05-04 20:09 | 54.09002 | 10.92717 | 26906 ft | 428 kts | 36° |
| 2026-05-04 20:09 | 54.11264 | 10.95973 | 26547 ft | 425 kts | 36° |
| 2026-05-04 20:09 | 54.13539 | 10.99261 | 26188 ft | 422 kts | 37° |
| 2026-05-04 20:10 | 54.15734 | 11.02447 | 25847 ft | 420 kts | 37° |
| 2026-05-04 20:10 | 54.17944 | 11.05664 | 25499 ft | 417 kts | 37° |
| 2026-05-04 20:10 | 54.20128 | 11.08853 | 25157 ft | 414 kts | 37° |
| 2026-05-04 20:10 | 54.22310 | 11.12047 | 24816 ft | 412 kts | 37° |
| 2026-05-04 20:11 | 54.24478 | 11.15232 | 24504 ft | 410 kts | 36° |
| 2026-05-04 20:11 | 54.26629 | 11.18397 | 24185 ft | 409 kts | 36° |
| 2026-05-04 20:11 | 54.28793 | 11.21580 | 23877 ft | 407 kts | 36° |
| 2026-05-04 20:11 | 54.30940 | 11.24743 | 23573 ft | 405 kts | 36° |
| 2026-05-04 20:12 | 54.33065 | 11.27876 | 23211 ft | 403 kts | 36° |
| 2026-05-04 20:12 | 54.35155 | 11.30964 | 22858 ft | 400 kts | 36° |
| 2026-05-04 20:12 | 54.37260 | 11.34079 | 22495 ft | 397 kts | 37° |
| 2026-05-04 20:12 | 54.39379 | 11.37216 | 22154 ft | 395 kts | 37° |
| 2026-05-04 20:13 | 54.41419 | 11.40231 | 21816 ft | 392 kts | 37° |
| 2026-05-04 20:13 | 54.43480 | 11.43281 | 21478 ft | 390 kts | 37° |
| 2026-05-04 20:13 | 54.45521 | 11.46310 | 21141 ft | 387 kts | 37° |
| 2026-05-04 20:13 | 54.47560 | 11.49343 | 20844 ft | 384 kts | 37° |
| 2026-05-04 20:14 | 54.49570 | 11.52341 | 20503 ft | 380 kts | 37° |
| 2026-05-04 20:14 | 54.51557 | 11.55308 | 20180 ft | 378 kts | 37° |
| 2026-05-04 20:14 | 54.53546 | 11.58276 | 19859 ft | 375 kts | 37° |
| 2026-05-04 20:14 | 54.55503 | 11.61203 | 19539 ft | 373 kts | 37° |
| 2026-05-04 20:15 | 54.57461 | 11.64136 | 19213 ft | 371 kts | 38° |
| 2026-05-04 20:15 | 54.59402 | 11.67047 | 18909 ft | 368 kts | 38° |
| 2026-05-04 20:15 | 54.61325 | 11.69938 | 18594 ft | 366 kts | 38° |
| 2026-05-04 20:15 | 54.63242 | 11.72822 | 18288 ft | 364 kts | 38° |
| 2026-05-04 20:16 | 54.65142 | 11.75681 | 17935 ft | 362 kts | 38° |
| 2026-05-04 20:16 | 54.67016 | 11.78505 | 17596 ft | 360 kts | 38° |
| 2026-05-04 20:16 | 54.68917 | 11.81373 | 17270 ft | 358 kts | 38° |
| 2026-05-04 20:16 | 54.70778 | 11.84184 | 16932 ft | 355 kts | 38° |
| 2026-05-04 20:17 | 54.72616 | 11.86968 | 16596 ft | 353 kts | 38° |
| 2026-05-04 20:17 | 54.74449 | 11.89753 | 16258 ft | 351 kts | 38° |
| 2026-05-04 20:17 | 54.76282 | 11.92540 | 15921 ft | 349 kts | 38° |
| 2026-05-04 20:17 | 54.78081 | 11.95274 | 15588 ft | 347 kts | 38° |
| 2026-05-04 20:18 | 54.79926 | 11.98085 | 15270 ft | 346 kts | 38° |
| 2026-05-04 20:18 | 54.81700 | 12.00791 | 14943 ft | 344 kts | 38° |
| 2026-05-04 20:18 | 54.83494 | 12.03527 | 14620 ft | 343 kts | 38° |
| 2026-05-04 20:18 | 54.85278 | 12.06242 | 14298 ft | 341 kts | 38° |
| 2026-05-04 20:19 | 54.87063 | 12.08963 | 13991 ft | 339 kts | 38° |
| 2026-05-04 20:19 | 54.88864 | 12.11564 | 13681 ft | 334 kts | 30° |
| 2026-05-04 20:19 | 54.90844 | 12.13696 | 13473 ft | 333 kts | 27° |
| 2026-05-04 20:19 | 54.92815 | 12.15815 | 13280 ft | 332 kts | 28° |
| 2026-05-04 20:20 | 54.94768 | 12.17927 | 13073 ft | 332 kts | 28° |
| 2026-05-04 20:20 | 54.96724 | 12.20045 | 12857 ft | 330 kts | 28° |
| 2026-05-04 20:20 | 54.98677 | 12.22160 | 12648 ft | 329 kts | 28° |
| 2026-05-04 20:20 | 55.00616 | 12.24258 | 12434 ft | 328 kts | 28° |
| 2026-05-04 20:21 | 55.02549 | 12.26353 | 12225 ft | 326 kts | 28° |
| 2026-05-04 20:21 | 55.04472 | 12.28443 | 12037 ft | 325 kts | 28° |
| 2026-05-04 20:21 | 55.08279 | 12.32578 | 11620 ft | 322 kts | 28° |
| 2026-05-04 20:22 | 55.10180 | 12.34640 | 11416 ft | 321 kts | 28° |
| 2026-05-04 20:22 | 55.12081 | 12.36702 | 11218 ft | 320 kts | 28° |
| 2026-05-04 20:22 | 55.13960 | 12.38745 | 11032 ft | 319 kts | 28° |
| 2026-05-04 20:22 | 55.15837 | 12.40791 | 10829 ft | 317 kts | 28° |
| 2026-05-04 20:23 | 55.17714 | 12.42844 | 10642 ft | 316 kts | 28° |
| 2026-05-04 20:23 | 55.19575 | 12.44881 | 10441 ft | 315 kts | 28° |
| 2026-05-04 20:23 | 55.21422 | 12.46904 | 10248 ft | 313 kts | 28° |
| 2026-05-04 20:23 | 55.23272 | 12.48929 | 10055 ft | 312 kts | 28° |
| 2026-05-04 20:24 | 55.25086 | 12.50916 | 9857 ft | 306 kts | 28° |
| 2026-05-04 20:24 | 55.26889 | 12.52898 | 9644 ft | 302 kts | 28° |
| 2026-05-04 20:24 | 55.28656 | 12.54842 | 9420 ft | 300 kts | 28° |
| 2026-05-04 20:24 | 55.30441 | 12.56807 | 9221 ft | 299 kts | 28° |
| 2026-05-04 20:25 | 55.32181 | 12.58723 | 8994 ft | 298 kts | 28° |
| 2026-05-04 20:25 | 55.33935 | 12.60655 | 8800 ft | 297 kts | 28° |
| 2026-05-04 20:25 | 55.35685 | 12.62581 | 8584 ft | 296 kts | 28° |
| 2026-05-04 20:25 | 55.37398 | 12.64468 | 8382 ft | 295 kts | 28° |
| 2026-05-04 20:26 | 55.39155 | 12.66409 | 8171 ft | 294 kts | 28° |
| 2026-05-04 20:26 | 55.40882 | 12.68323 | 7969 ft | 293 kts | 29° |
| 2026-05-04 20:26 | 55.42595 | 12.70225 | 7770 ft | 292 kts | 29° |
| 2026-05-04 20:26 | 55.44314 | 12.72134 | 7569 ft | 291 kts | 29° |
| 2026-05-04 20:27 | 55.46027 | 12.74037 | 7254 ft | 288 kts | 29° |
| 2026-05-04 20:27 | 55.47712 | 12.75912 | 6859 ft | 286 kts | 29° |
| 2026-05-04 20:27 | 55.49399 | 12.77784 | 6472 ft | 285 kts | 29° |
| 2026-05-04 20:27 | 55.51070 | 12.79639 | 6077 ft | 283 kts | 29° |
| 2026-05-04 20:28 | 55.52729 | 12.81486 | 5849 ft | 282 kts | 29° |
| 2026-05-04 20:28 | 55.54381 | 12.83330 | 5593 ft | 281 kts | 29° |
| 2026-05-04 20:28 | 55.56025 | 12.85169 | 5350 ft | 279 kts | 30° |
| 2026-05-04 20:28 | 55.57659 | 12.86999 | 5097 ft | 278 kts | 30° |
| 2026-05-04 20:29 | 55.59270 | 12.88805 | 4844 ft | 274 kts | 30° |
| 2026-05-04 20:29 | 55.60853 | 12.90585 | 4606 ft | 265 kts | 30° |
| 2026-05-04 20:29 | 55.62375 | 12.92302 | 4470 ft | 255 kts | 30° |
| 2026-05-04 20:29 | 55.63882 | 12.94001 | 4253 ft | 251 kts | 29° |
| 2026-05-04 20:30 | 55.65310 | 12.95608 | 3991 ft | 242 kts | 29° |
| 2026-05-04 20:30 | 55.66716 | 12.97189 | 3753 ft | 238 kts | 29° |
| 2026-05-04 20:30 | 55.68108 | 12.98752 | 3520 ft | 236 kts | 29° |
| 2026-05-04 20:30 | 55.69496 | 13.00300 | 3292 ft | 233 kts | 26° |
| 2026-05-04 20:31 | 55.70997 | 13.01053 | 3085 ft | 224 kts | 354° |
| 2026-05-04 20:31 | 55.72441 | 13.00211 | 2996 ft | 217 kts | 323° |
| 2026-05-04 20:31 | 55.73612 | 12.98510 | 3000 ft | 218 kts | 316° |
| 2026-05-04 20:31 | 55.74720 | 12.96712 | 3002 ft | 218 kts | 315° |
| 2026-05-04 20:32 | 55.75786 | 12.94796 | 3000 ft | 217 kts | 304° |
| 2026-05-04 20:32 | 55.76387 | 12.92368 | 3001 ft | 214 kts | 280° |
| 2026-05-04 20:32 | 55.76361 | 12.89785 | 3000 ft | 209 kts | 257° |
| 2026-05-04 20:32 | 55.75738 | 12.87458 | 3002 ft | 212 kts | 234° |
| 2026-05-04 20:33 | 55.74680 | 12.85659 | 3003 ft | 207 kts | 224° |
| 2026-05-04 20:33 | 55.73626 | 12.84020 | 2916 ft | 198 kts | 224° |
| 2026-05-04 20:33 | 55.72602 | 12.82422 | 2734 ft | 192 kts | 225° |
| 2026-05-04 20:33 | 55.71610 | 12.80874 | 2453 ft | 188 kts | 225° |
| 2026-05-04 20:34 | 55.70641 | 12.79362 | 2198 ft | 184 kts | 225° |
| 2026-05-04 20:34 | 55.69682 | 12.77866 | 1940 ft | 182 kts | 225° |
| 2026-05-04 20:34 | 55.69060 | 12.76896 | 1783 ft | 178 kts | 225° |
| 2026-05-04 20:34 | 55.68155 | 12.75489 | 1527 ft | 165 kts | 225° |
| 2026-05-04 20:35 | 55.67343 | 12.74221 | 1330 ft | 149 kts | 225° |
| 2026-05-04 20:35 | 55.66604 | 12.73039 | 1092 ft | 138 kts | 225° |
| 2026-05-04 20:35 | 55.65889 | 12.71929 | 909 ft | 138 kts | 224° |
| 2026-05-04 20:35 | 55.65155 | 12.70790 | 761 ft | 142 kts | 224° |
| 2026-05-04 20:36 | 55.64407 | 12.69625 | 594 ft | 144 kts | 223° |
| 2026-05-04 20:36 | 55.63665 | 12.68472 | 378 ft | 143 kts | 222° |
| 2026-05-04 20:36 | 55.62920 | 12.67326 | 163 ft | 140 kts | 223° |
| 2026-05-04 20:36 | 55.62205 | 12.66223 | 29 ft | 128 kts | 221° |
| 2026-05-04 20:37 | 55.61644 | 12.65362 | 22 ft | 82 kts | 220° |
| 2026-05-04 20:37 | 55.61352 | 12.64907 | 25 ft | 33 kts | 226° |
| 2026-05-04 20:37 | 55.61260 | 12.64629 | 26 ft | 15 kts | 250° |
| 2026-05-04 20:37 | 55.61232 | 12.64482 | 23 ft | 4 kts | 251° |
| 2026-05-04 20:38 | 55.61230 | 12.64473 | 24 ft | 0 kts | 251° |
| 2026-05-04 20:38 | 55.61221 | 12.64427 | 24 ft | 9 kts | 251° |
| 2026-05-04 20:38 | 55.61199 | 12.64316 | 25 ft | 9 kts | 250° |
| 2026-05-04 20:38 | 55.61188 | 12.64203 | 24 ft | 10 kts | 277° |
| 2026-05-04 20:39 | 55.61232 | 12.64116 | 24 ft | 11 kts | 336° |